sensor_id;sensor_type;location;lat;lon;timestamp;pressure;altitude;pressure_sealevel;temperature;humidity
55456;BME280;63021;52.836;6.376;2023-03-19T00:01:42;101122.00;;;10.99;75.12
55456;BME280;63021;52.836;6.376;2023-03-19T00:04:08;101123.16;;;10.96;75.65
55456;BME280;63021;52.836;6.376;2023-03-19T00:06:33;101127.91;;;10.92;75.29
55456;BME280;63021;52.836;6.376;2023-03-19T00:08:58;101132.41;;;10.92;75.29
55456;BME280;63021;52.836;6.376;2023-03-19T00:11:24;101133.38;;;10.91;74.98
55456;BME280;63021;52.836;6.376;2023-03-19T00:13:50;101126.38;;;10.90;75.35
55456;BME280;63021;52.836;6.376;2023-03-19T00:16:15;101131.84;;;10.88;75.01
55456;BME280;63021;52.836;6.376;2023-03-19T00:18:41;101131.97;;;10.87;75.36
55456;BME280;63021;52.836;6.376;2023-03-19T00:21:07;101137.31;;;10.87;74.87
55456;BME280;63021;52.836;6.376;2023-03-19T00:23:34;101131.69;;;10.80;74.71
55456;BME280;63021;52.836;6.376;2023-03-19T00:26:01;101139.16;;;10.86;75.09
55456;BME280;63021;52.836;6.376;2023-03-19T00:28:27;101140.13;;;10.85;75.63
55456;BME280;63021;52.836;6.376;2023-03-19T00:30:52;101141.09;;;10.84;74.75
55456;BME280;63021;52.836;6.376;2023-03-19T00:33:17;101140.56;;;10.81;75.33
55456;BME280;63021;52.836;6.376;2023-03-19T00:35:44;101149.94;;;10.85;75.26
55456;BME280;63021;52.836;6.376;2023-03-19T00:38:10;101139.16;;;10.77;75.61
55456;BME280;63021;52.836;6.376;2023-03-19T00:40:35;101142.22;;;10.82;74.92
55456;BME280;63021;52.836;6.376;2023-03-19T00:43:01;101144.75;;;10.83;75.38
55456;BME280;63021;52.836;6.376;2023-03-19T00:45:27;101146.56;;;10.83;74.92
55456;BME280;63021;52.836;6.376;2023-03-19T00:47:55;101150.34;;;10.80;74.86
55456;BME280;63021;52.836;6.376;2023-03-19T00:50:24;101152.88;;;10.82;75.03
55456;BME280;63021;52.836;6.376;2023-03-19T00:52:50;101151.34;;;10.79;75.08
55456;BME280;63021;52.836;6.376;2023-03-19T00:55:16;101144.47;;;10.77;75.40
55456;BME280;63021;52.836;6.376;2023-03-19T00:57:42;101142.63;;;10.77;74.66
55456;BME280;63021;52.836;6.376;2023-03-19T01:00:08;101148.97;;;10.76;75.19
55456;BME280;63021;52.836;6.376;2023-03-19T01:02:35;101141.38;;;10.71;75.54
55456;BME280;63021;52.836;6.376;2023-03-19T01:05:00;101155.41;;;10.73;74.95
55456;BME280;63021;52.836;6.376;2023-03-19T01:07:25;101154.56;;;10.73;75.44
55456;BME280;63021;52.836;6.376;2023-03-19T01:09:51;101155.41;;;10.73;74.89
55456;BME280;63021;52.836;6.376;2023-03-19T01:12:16;101149.66;;;10.68;74.94
55456;BME280;63021;52.836;6.376;2023-03-19T01:14:43;101149.50;;;10.70;75.40
55456;BME280;63021;52.836;6.376;2023-03-19T01:17:09;101163.25;;;10.75;75.38
55456;BME280;63021;52.836;6.376;2023-03-19T01:19:34;101164.22;;;10.74;75.12
55456;BME280;63021;52.836;6.376;2023-03-19T01:21:59;101158.06;;;10.73;75.41
55456;BME280;63021;52.836;6.376;2023-03-19T01:24:28;101158.75;;;10.75;75.15
55456;BME280;63021;52.836;6.376;2023-03-19T01:26:54;101149.22;;;10.73;75.57
55456;BME280;63021;52.836;6.376;2023-03-19T01:29:19;101150.09;;;10.73;75.21
55456;BME280;63021;52.836;6.376;2023-03-19T01:31:45;101144.75;;;10.73;75.62
55456;BME280;63021;52.836;6.376;2023-03-19T01:34:10;101153.56;;;10.74;75.46
55456;BME280;63021;52.836;6.376;2023-03-19T01:36:35;101142.25;;;10.72;75.34
55456;BME280;63021;52.836;6.376;2023-03-19T01:39:01;101150.91;;;10.74;75.57
55456;BME280;63021;52.836;6.376;2023-03-19T01:41:26;101146.69;;;10.71;76.25
55456;BME280;63021;52.836;6.376;2023-03-19T01:43:51;101146.69;;;10.71;76.00
55456;BME280;63021;52.836;6.376;2023-03-19T01:46:30;101143.50;;;10.68;75.90
55456;BME280;63021;52.836;6.376;2023-03-19T01:49:00;101141.53;;;10.70;75.94
55456;BME280;63021;52.836;6.376;2023-03-19T01:51:29;101148.69;;;10.69;76.30
55456;BME280;63021;52.836;6.376;2023-03-19T01:53:58;101142.53;;;10.69;75.77
55456;BME280;63021;52.836;6.376;2023-03-19T01:56:31;101142.53;;;10.69;76.65
55456;BME280;63021;52.836;6.376;2023-03-19T01:59:02;101138.19;;;10.68;76.69
55456;BME280;63021;52.836;6.376;2023-03-19T02:01:31;101141.81;;;10.67;75.99
55456;BME280;63021;52.836;6.376;2023-03-19T02:03:58;101137.47;;;10.66;76.40
55456;BME280;63021;52.836;6.376;2023-03-19T02:06:24;101139.28;;;10.65;76.34
55456;BME280;63021;52.836;6.376;2023-03-19T02:08:50;101123.75;;;10.61;76.31
55456;BME280;63021;52.836;6.376;2023-03-19T02:11:17;101139.28;;;10.65;76.28
55456;BME280;63021;52.836;6.376;2023-03-19T02:13:43;101134.09;;;10.64;76.83
55456;BME280;63021;52.836;6.376;2023-03-19T02:16:09;101134.25;;;10.62;76.46
55456;BME280;63021;52.836;6.376;2023-03-19T02:18:35;101144.06;;;10.62;76.59
55456;BME280;63021;52.836;6.376;2023-03-19T02:21:07;101141.41;;;10.62;76.69
55456;BME280;63021;52.836;6.376;2023-03-19T02:24:14;101144.06;;;10.62;77.16
55456;BME280;63021;52.836;6.376;2023-03-19T02:26:40;101142.38;;;10.61;76.96
55456;BME280;63021;52.836;6.376;2023-03-19T02:29:06;101138.31;;;10.56;76.58
55456;BME280;63021;52.836;6.376;2023-03-19T02:31:31;101139.84;;;10.59;77.33
55456;BME280;63021;52.836;6.376;2023-03-19T02:33:57;101142.53;;;10.59;76.80
55456;BME280;63021;52.836;6.376;2023-03-19T02:36:27;101138.84;;;10.60;77.46
55456;BME280;63021;52.836;6.376;2023-03-19T02:38:57;101136.47;;;10.57;76.64
55456;BME280;63021;52.836;6.376;2023-03-19T02:41:25;101132.00;;;10.57;76.56
55456;BME280;63021;52.836;6.376;2023-03-19T02:43:51;101142.38;;;10.61;76.54
55456;BME280;63021;52.836;6.376;2023-03-19T02:46:18;101145.88;;;10.61;77.10
55456;BME280;63021;52.836;6.376;2023-03-19T02:48:44;101138.03;;;10.60;76.57
55456;BME280;63021;52.836;6.376;2023-03-19T02:51:10;101140.00;;;10.57;77.28
55456;BME280;63021;52.836;6.376;2023-03-19T02:53:37;101145.72;;;10.63;76.90
55456;BME280;63021;52.836;6.376;2023-03-19T02:56:03;101149.41;;;10.62;76.53
55456;BME280;63021;52.836;6.376;2023-03-19T02:58:28;101147.69;;;10.61;76.54
55456;BME280;63021;52.836;6.376;2023-03-19T03:00:53;101133.41;;;10.52;76.52
55456;BME280;63021;52.836;6.376;2023-03-19T03:03:20;101142.53;;;10.59;76.74
55456;BME280;63021;52.836;6.376;2023-03-19T03:05:45;101148.81;;;10.58;76.35
55456;BME280;63021;52.836;6.376;2023-03-19T03:08:11;101152.44;;;10.57;77.29
55456;BME280;63021;52.836;6.376;2023-03-19T03:10:36;101149.94;;;10.55;77.18
55456;BME280;63021;52.836;6.376;2023-03-19T03:13:02;101148.28;;;10.54;76.65
55456;BME280;63021;52.836;6.376;2023-03-19T03:15:27;101165.75;;;10.57;76.60
55456;BME280;63021;52.836;6.376;2023-03-19T03:17:54;101165.91;;;10.55;76.83
55456;BME280;63021;52.836;6.376;2023-03-19T03:20:22;101168.69;;;10.54;76.49
55456;BME280;63021;52.836;6.376;2023-03-19T03:22:49;101168.84;;;10.52;76.31
55456;BME280;63021;52.836;6.376;2023-03-19T03:25:14;101173.47;;;10.50;76.96
55456;BME280;63021;52.836;6.376;2023-03-19T03:27:40;101172.06;;;10.46;76.57
55456;BME280;63021;52.836;6.376;2023-03-19T03:30:08;101174.72;;;10.46;76.49
55456;BME280;63021;52.836;6.376;2023-03-19T03:32:35;101176.41;;;10.47;77.06
55456;BME280;63021;52.836;6.376;2023-03-19T03:35:05;101180.88;;;10.47;77.13
55456;BME280;63021;52.836;6.376;2023-03-19T03:37:31;101181.03;;;10.45;76.95
55456;BME280;63021;52.836;6.376;2023-03-19T03:39:56;101175.16;;;10.42;76.66
55456;BME280;63021;52.836;6.376;2023-03-19T03:42:22;101181.72;;;10.47;76.80
55456;BME280;63021;52.836;6.376;2023-03-19T03:44:48;101182.56;;;10.48;76.29
55456;BME280;63021;52.836;6.376;2023-03-19T03:47:13;101181.59;;;10.49;76.85
55456;BME280;63021;52.836;6.376;2023-03-19T03:49:38;101182.56;;;10.48;76.37
55456;BME280;63021;52.836;6.376;2023-03-19T03:52:04;101184.38;;;10.47;77.06
55456;BME280;63021;52.836;6.376;2023-03-19T03:54:30;101174.88;;;10.45;77.23
55456;BME280;63021;52.836;6.376;2023-03-19T03:56:56;101185.25;;;10.48;77.09
55456;BME280;63021;52.836;6.376;2023-03-19T03:59:22;101182.72;;;10.46;76.41
55456;BME280;63021;52.836;6.376;2023-03-19T04:01:48;101180.88;;;10.47;77.12
55456;BME280;63021;52.836;6.376;2023-03-19T04:04:13;101182.72;;;10.46;76.71
55456;BME280;63021;52.836;6.376;2023-03-19T04:06:39;101177.41;;;10.46;76.90
55456;BME280;63021;52.836;6.376;2023-03-19T04:09:05;101181.84;;;10.46;77.47
55456;BME280;63021;52.836;6.376;2023-03-19T04:11:32;101187.75;;;10.49;77.59
55456;BME280;63021;52.836;6.376;2023-03-19T04:13:57;101174.88;;;10.45;77.54
55456;BME280;63021;52.836;6.376;2023-03-19T04:16:23;101178.50;;;10.44;76.75
55456;BME280;63021;52.836;6.376;2023-03-19T04:18:49;101185.09;;;10.49;76.92
55456;BME280;63021;52.836;6.376;2023-03-19T04:21:15;101182.28;;;10.51;77.35
55456;BME280;63021;52.836;6.376;2023-03-19T04:23:42;101176.41;;;10.47;77.05
55456;BME280;63021;52.836;6.376;2023-03-19T04:26:08;101186.22;;;10.47;76.86
55456;BME280;63021;52.836;6.376;2023-03-19T04:28:34;101194.06;;;10.48;76.84
55456;BME280;63021;52.836;6.376;2023-03-19T04:31:02;101187.03;;;10.47;77.42
55456;BME280;63021;52.836;6.376;2023-03-19T04:33:28;101190.13;;;10.43;76.91
55456;BME280;63021;52.836;6.376;2023-03-19T04:35:55;101187.19;;;10.36;77.07
55456;BME280;63021;52.836;6.376;2023-03-19T04:38:22;101198.38;;;10.39;76.90
55456;BME280;63021;52.836;6.376;2023-03-19T04:40:49;101201.19;;;10.38;76.77
55456;BME280;63021;52.836;6.376;2023-03-19T04:43:14;101196.00;;;10.36;76.74
55456;BME280;63021;52.836;6.376;2023-03-19T04:45:43;101190.94;;;10.33;76.31
55456;BME280;63021;52.836;6.376;2023-03-19T04:48:08;101187.69;;;10.30;76.92
55456;BME280;63021;52.836;6.376;2023-03-19T04:50:34;101193.41;;;10.25;76.24
55456;BME280;63021;52.836;6.376;2023-03-19T04:52:59;101201.69;;;10.22;76.29
55456;BME280;63021;52.836;6.376;2023-03-19T04:55:27;101197.59;;;10.18;76.68
55456;BME280;63021;52.836;6.376;2023-03-19T04:57:52;101204.75;;;10.17;76.89
55456;BME280;63021;52.836;6.376;2023-03-19T05:00:18;101208.53;;;10.15;76.60
55456;BME280;63021;52.836;6.376;2023-03-19T05:02:44;101200.94;;;10.10;76.73
55456;BME280;63021;52.836;6.376;2023-03-19T05:05:10;101192.94;;;10.00;76.29
55456;BME280;63021;52.836;6.376;2023-03-19T05:07:38;101211.56;;;10.00;76.06
55456;BME280;63021;52.836;6.376;2023-03-19T05:10:04;101203.53;;;9.91;76.20
55456;BME280;63021;52.836;6.376;2023-03-19T05:12:30;101231.50;;;9.85;76.51
55456;BME280;63021;52.836;6.376;2023-03-19T05:14:55;101207.97;;;9.80;76.35
55456;BME280;63021;52.836;6.376;2023-03-19T05:17:21;101210.91;;;9.77;76.41
55456;BME280;63021;52.836;6.376;2023-03-19T05:19:46;101201.50;;;9.73;76.43
55456;BME280;63021;52.836;6.376;2023-03-19T05:22:12;101198.38;;;9.68;76.71
55456;BME280;63021;52.836;6.376;2023-03-19T05:24:40;101201.31;;;9.65;76.44
55456;BME280;63021;52.836;6.376;2023-03-19T05:27:05;101196.13;;;9.63;76.62
55456;BME280;63021;52.836;6.376;2023-03-19T05:29:31;101202.69;;;9.59;76.60
55456;BME280;63021;52.836;6.376;2023-03-19T05:31:57;101201.25;;;9.55;76.66
55456;BME280;63021;52.836;6.376;2023-03-19T05:34:23;101199.97;;;9.49;76.67
55456;BME280;63021;52.836;6.376;2023-03-19T05:36:49;101196.13;;;9.42;76.56
55456;BME280;63021;52.836;6.376;2023-03-19T05:39:15;101205.94;;;9.42;76.28
55456;BME280;63021;52.836;6.376;2023-03-19T05:41:40;101212.16;;;9.31;76.20
55456;BME280;63021;52.836;6.376;2023-03-19T05:44:05;101216.50;;;9.32;76.29
55456;BME280;63021;52.836;6.376;2023-03-19T05:46:31;101230.31;;;9.26;76.66
55456;BME280;63021;52.836;6.376;2023-03-19T05:48:56;101211.06;;;9.12;76.34
55456;BME280;63021;52.836;6.376;2023-03-19T05:51:27;101221.31;;;9.17;76.62
55456;BME280;63021;52.836;6.376;2023-03-19T05:53:52;101236.91;;;9.10;76.65
55456;BME280;63021;52.836;6.376;2023-03-19T05:56:17;101234.75;;;9.04;76.53
55456;BME280;63021;52.836;6.376;2023-03-19T05:58:43;101237.41;;;9.04;76.62
55456;BME280;63021;52.836;6.376;2023-03-19T06:01:09;101231.63;;;8.99;76.94
55456;BME280;63021;52.836;6.376;2023-03-19T06:03:34;101238.53;;;8.90;76.80
55456;BME280;63021;52.836;6.376;2023-03-19T06:06:00;101224.22;;;8.81;76.44
55456;BME280;63021;52.836;6.376;2023-03-19T06:08:25;101240.03;;;8.83;76.60
55456;BME280;63021;52.836;6.376;2023-03-19T06:10:51;101253.16;;;8.84;77.06
55456;BME280;63021;52.836;6.376;2023-03-19T06:13:17;101241.38;;;8.77;76.90
55456;BME280;63021;52.836;6.376;2023-03-19T06:15:42;101246.41;;;8.80;76.65
55456;BME280;63021;52.836;6.376;2023-03-19T06:18:08;101249.31;;;8.77;76.98
55456;BME280;63021;52.836;6.376;2023-03-19T06:20:33;101265.00;;;8.80;76.68
55456;BME280;63021;52.836;6.376;2023-03-19T06:22:58;101267.91;;;8.77;76.90
55456;BME280;63021;52.836;6.376;2023-03-19T06:25:24;101260.44;;;8.71;76.81
55456;BME280;63021;52.836;6.376;2023-03-19T06:27:49;101273.34;;;8.76;77.32
55456;BME280;63021;52.836;6.376;2023-03-19T06:30:15;101276.13;;;8.74;76.87
55456;BME280;63021;52.836;6.376;2023-03-19T06:32:41;101274.31;;;8.75;76.68
55456;BME280;63021;52.836;6.376;2023-03-19T06:35:06;101274.44;;;8.73;77.23
55456;BME280;63021;52.836;6.376;2023-03-19T06:37:33;101271.06;;;8.71;76.46
55456;BME280;63021;52.836;6.376;2023-03-19T06:39:58;101249.16;;;8.58;76.64
55456;BME280;63021;52.836;6.376;2023-03-19T06:42:24;101275.16;;;8.75;76.64
55456;BME280;63021;52.836;6.376;2023-03-19T06:44:49;101266.16;;;8.66;76.92
55456;BME280;63021;52.836;6.376;2023-03-19T06:47:14;101288.31;;;8.77;77.07
55456;BME280;63021;52.836;6.376;2023-03-19T06:49:40;101286.84;;;8.84;76.70
55456;BME280;63021;52.836;6.376;2023-03-19T06:52:06;101292.97;;;8.96;77.21
55456;BME280;63021;52.836;6.376;2023-03-19T06:54:32;101292.22;;;9.05;76.97
55456;BME280;63021;52.836;6.376;2023-03-19T06:56:58;101290.81;;;9.22;76.90
55456;BME280;63021;52.836;6.376;2023-03-19T06:59:23;101294.84;;;9.38;77.38
55456;BME280;63021;52.836;6.376;2023-03-19T07:01:50;101292.34;;;9.57;77.40
55456;BME280;63021;52.836;6.376;2023-03-19T07:04:17;101295.84;;;9.79;76.88
55456;BME280;63021;52.836;6.376;2023-03-19T07:06:42;101284.59;;;9.96;77.35
55456;BME280;63021;52.836;6.376;2023-03-19T07:09:08;101288.75;;;10.20;77.34
55456;BME280;63021;52.836;6.376;2023-03-19T07:11:34;101298.69;;;10.39;76.83
55456;BME280;63021;52.836;6.376;2023-03-19T07:13:59;101298.72;;;10.58;77.05
55456;BME280;63021;52.836;6.376;2023-03-19T07:16:29;101302.28;;;10.79;76.64
55456;BME280;63021;52.836;6.376;2023-03-19T07:18:54;101298.13;;;10.96;76.54
55456;BME280;63021;52.836;6.376;2023-03-19T07:21:21;101308.94;;;11.14;76.10
55456;BME280;63021;52.836;6.376;2023-03-19T07:23:46;101305.13;;;11.26;75.85
55456;BME280;63021;52.836;6.376;2023-03-19T07:26:12;101312.56;;;11.42;76.02
55456;BME280;63021;52.836;6.376;2023-03-19T07:28:38;101316.34;;;11.59;75.70
55456;BME280;63021;52.836;6.376;2023-03-19T07:31:03;101316.06;;;11.72;74.98
55456;BME280;63021;52.836;6.376;2023-03-19T07:33:29;101319.41;;;11.84;75.33
55456;BME280;63021;52.836;6.376;2023-03-19T07:35:55;101320.97;;;11.96;75.31
55456;BME280;63021;52.836;6.376;2023-03-19T07:38:21;101320.22;;;12.04;74.75
55456;BME280;63021;52.836;6.376;2023-03-19T07:40:49;101318.38;;;12.14;75.04
55456;BME280;63021;52.836;6.376;2023-03-19T07:43:14;101322.69;;;12.25;74.57
55456;BME280;63021;52.836;6.376;2023-03-19T07:45:39;101313.59;;;12.18;74.73
55456;BME280;63021;52.836;6.376;2023-03-19T07:48:06;101327.72;;;12.28;74.42
55456;BME280;63021;52.836;6.376;2023-03-19T07:50:32;101332.25;;;12.27;74.48
55456;BME280;63021;52.836;6.376;2023-03-19T07:52:58;101333.78;;;12.30;74.28
55456;BME280;63021;52.836;6.376;2023-03-19T07:55:23;101333.50;;;12.33;74.04
55456;BME280;63021;52.836;6.376;2023-03-19T07:58:01;101341.75;;;12.40;73.90
55456;BME280;63021;52.836;6.376;2023-03-19T08:00:30;101345.53;;;12.47;73.66
55456;BME280;63021;52.836;6.376;2023-03-19T08:02:56;101351.09;;;12.54;73.76
55456;BME280;63021;52.836;6.376;2023-03-19T08:05:21;101349.00;;;12.57;73.46
55456;BME280;63021;52.836;6.376;2023-03-19T08:07:49;101337.44;;;12.57;73.98
55456;BME280;63021;52.836;6.376;2023-03-19T08:10:17;101354.56;;;12.64;73.92
55456;BME280;63021;52.836;6.376;2023-03-19T08:12:42;101353.72;;;12.63;73.69
55456;BME280;63021;52.836;6.376;2023-03-19T08:15:09;101358.53;;;12.60;73.56
55456;BME280;63021;52.836;6.376;2023-03-19T08:17:36;101360.34;;;12.59;72.93
55456;BME280;63021;52.836;6.376;2023-03-19T08:20:13;101369.34;;;12.58;72.90
55456;BME280;63021;52.836;6.376;2023-03-19T08:22:41;101362.66;;;12.54;72.77
55456;BME280;63021;52.836;6.376;2023-03-19T08:25:16;101375.28;;;12.52;72.45
55456;BME280;63021;52.836;6.376;2023-03-19T08:27:41;101376.72;;;12.46;73.00
55456;BME280;63021;52.836;6.376;2023-03-19T08:30:08;101381.38;;;12.44;72.90
55456;BME280;63021;52.836;6.376;2023-03-19T08:32:35;101377.44;;;12.39;72.67
55456;BME280;63021;52.836;6.376;2023-03-19T08:35:01;101391.09;;;12.36;72.72
55456;BME280;63021;52.836;6.376;2023-03-19T08:37:26;101389.00;;;12.29;71.97
55456;BME280;63021;52.836;6.376;2023-03-19T08:39:56;101391.25;;;12.24;72.19
55456;BME280;63021;52.836;6.376;2023-03-19T08:42:21;101396.03;;;12.21;72.74
55456;BME280;63021;52.836;6.376;2023-03-19T08:44:47;101392.97;;;12.16;72.09
55456;BME280;63021;52.836;6.376;2023-03-19T08:47:20;101395.94;;;12.12;71.79
55456;BME280;63021;52.836;6.376;2023-03-19T08:49:49;101391.88;;;12.08;72.13
55456;BME280;63021;52.836;6.376;2023-03-19T08:52:15;101400.03;;;12.07;72.55
55456;BME280;63021;52.836;6.376;2023-03-19T08:54:40;101390.31;;;11.96;72.19
55456;BME280;63021;52.836;6.376;2023-03-19T08:57:06;101402.94;;;12.04;72.14
55456;BME280;63021;52.836;6.376;2023-03-19T08:59:31;101406.19;;;12.07;72.46
55456;BME280;63021;52.836;6.376;2023-03-19T09:01:57;101390.19;;;11.98;72.61
55456;BME280;63021;52.836;6.376;2023-03-19T09:04:22;101405.47;;;12.15;72.69
55456;BME280;63021;52.836;6.376;2023-03-19T09:06:49;101410.38;;;12.20;72.46
55456;BME280;63021;52.836;6.376;2023-03-19T09:09:16;101410.25;;;12.21;71.97
55456;BME280;63021;52.836;6.376;2023-03-19T09:11:42;101418.94;;;12.23;72.44
55456;BME280;63021;52.836;6.376;2023-03-19T09:14:08;101425.25;;;12.22;71.72
55456;BME280;63021;52.836;6.376;2023-03-19T09:16:38;101419.53;;;12.17;71.71
55456;BME280;63021;52.836;6.376;2023-03-19T09:19:04;101429.47;;;12.15;71.62
55456;BME280;63021;52.836;6.376;2023-03-19T09:21:29;101424.56;;;12.10;71.77
55456;BME280;63021;52.836;6.376;2023-03-19T09:23:55;101426.72;;;12.07;71.84
55456;BME280;63021;52.836;6.376;2023-03-19T09:26:21;101428.66;;;12.05;71.87
55456;BME280;63021;52.836;6.376;2023-03-19T09:28:46;101433.16;;;12.04;71.72
55456;BME280;63021;52.836;6.376;2023-03-19T09:31:12;101441.03;;;12.06;71.44
55456;BME280;63021;52.836;6.376;2023-03-19T09:33:37;101444.53;;;12.06;72.10
55456;BME280;63021;52.836;6.376;2023-03-19T09:36:03;101443.97;;;12.03;71.49
55456;BME280;63021;52.836;6.376;2023-03-19T09:38:35;101443.25;;;12.01;71.67
55456;BME280;63021;52.836;6.376;2023-03-19T09:44:14;101458.97;;;12.04;71.96
55456;BME280;63021;52.836;6.376;2023-03-19T09:49:23;101457.72;;;12.08;71.82
55456;BME280;63021;52.836;6.376;2023-03-19T09:51:55;101462.09;;;12.09;71.93
55456;BME280;63021;52.836;6.376;2023-03-19T09:57:03;101469.94;;;12.10;72.66
55456;BME280;63021;52.836;6.376;2023-03-19T09:59:29;101485.00;;;12.11;72.01
55456;BME280;63021;52.836;6.376;2023-03-19T10:02:08;101478.09;;;12.09;72.22
55456;BME280;63021;52.836;6.376;2023-03-19T10:10:59;101484.84;;;12.03;72.29
55456;BME280;63021;52.836;6.376;2023-03-19T10:16:19;101486.81;;;12.01;71.93
55456;BME280;63021;52.836;6.376;2023-03-19T10:18:48;101487.94;;;11.99;71.71
55456;BME280;63021;52.836;6.376;2023-03-19T10:21:16;101487.94;;;11.99;71.38
55456;BME280;63021;52.836;6.376;2023-03-19T10:26:17;101500.69;;;11.95;71.59
55456;BME280;63021;52.836;6.376;2023-03-19T10:28:49;101492.84;;;11.93;72.01
55456;BME280;63021;52.836;6.376;2023-03-19T10:34:30;101496.91;;;11.98;71.82
55456;BME280;63021;52.836;6.376;2023-03-19T10:37:02;101498.31;;;12.02;71.40
55456;BME280;63021;52.836;6.376;2023-03-19T10:39:31;101498.91;;;12.05;71.68
55456;BME280;63021;52.836;6.376;2023-03-19T10:42:07;101494.41;;;12.06;71.62
55456;BME280;63021;52.836;6.376;2023-03-19T10:47:26;101501.16;;;12.10;71.39
55456;BME280;63021;52.836;6.376;2023-03-19T10:49:52;101501.84;;;12.12;71.39
55456;BME280;63021;52.836;6.376;2023-03-19T10:52:21;101508.16;;;12.11;71.14
55456;BME280;63021;52.836;6.376;2023-03-19T10:54:53;101497.75;;;12.08;70.94
55456;BME280;63021;52.836;6.376;2023-03-19T10:57:25;101511.81;;;12.10;71.07
55456;BME280;63021;52.836;6.376;2023-03-19T10:59:51;101511.25;;;12.06;71.27
55456;BME280;63021;52.836;6.376;2023-03-19T11:02:22;101512.50;;;12.02;71.14
55456;BME280;63021;52.836;6.376;2023-03-19T11:05:05;101514.34;;;12.02;71.48
55456;BME280;63021;52.836;6.376;2023-03-19T11:07:32;101520.38;;;12.04;71.09
55456;BME280;63021;52.836;6.376;2023-03-19T11:09:58;101502.84;;;12.01;71.45
55456;BME280;63021;52.836;6.376;2023-03-19T11:12:31;101512.78;;;12.09;71.71
55456;BME280;63021;52.836;6.376;2023-03-19T11:14:59;101520.38;;;12.13;71.86
55456;BME280;63021;52.836;6.376;2023-03-19T11:17:37;101519.94;;;12.18;71.82
55456;BME280;63021;52.836;6.376;2023-03-19T11:22:40;101507.59;;;12.27;71.65
55456;BME280;63021;52.836;6.376;2023-03-19T11:25:17;101519.13;;;12.37;71.15
55456;BME280;63021;52.836;6.376;2023-03-19T11:27:44;101512.66;;;12.40;70.84
55456;BME280;63021;52.836;6.376;2023-03-19T11:30:21;101509.97;;;12.40;70.69
55456;BME280;63021;52.836;6.376;2023-03-19T11:35:24;101517.13;;;12.49;70.74
55456;BME280;63021;52.836;6.376;2023-03-19T11:37:57;101526.69;;;12.52;70.61
55456;BME280;63021;52.836;6.376;2023-03-19T11:51:31;101518.91;;;12.58;71.11
55456;BME280;63021;52.836;6.376;2023-03-19T11:55:02;101523.84;;;12.63;70.93
55456;BME280;63021;52.836;6.376;2023-03-19T12:00:49;101530.16;;;12.62;69.97
55456;BME280;63021;52.836;6.376;2023-03-19T12:05:59;101528.09;;;12.56;70.31
55456;BME280;63021;52.836;6.376;2023-03-19T12:11:12;101529.50;;;12.60;70.37
55456;BME280;63021;52.836;6.376;2023-03-19T12:16:37;101536.19;;;12.74;70.02
55456;BME280;63021;52.836;6.376;2023-03-19T12:29:48;101530.00;;;12.83;69.53
55456;BME280;63021;52.836;6.376;2023-03-19T12:34:48;101543.75;;;12.78;69.89
55456;BME280;63021;52.836;6.376;2023-03-19T12:40:31;101533.75;;;12.90;70.02
55456;BME280;63021;52.836;6.376;2023-03-19T12:43:02;101527.94;;;13.05;70.24
55456;BME280;63021;52.836;6.376;2023-03-19T12:45:37;101528.88;;;13.23;70.08
55456;BME280;63021;52.836;6.376;2023-03-19T12:50:36;101521.34;;;13.64;69.74
55456;BME280;63021;52.836;6.376;2023-03-19T12:53:07;101517.41;;;13.86;68.75
55456;BME280;63021;52.836;6.376;2023-03-19T12:55:48;101523.59;;;14.05;68.76
55456;BME280;63021;52.836;6.376;2023-03-19T12:58:23;101523.88;;;14.20;68.11
55456;BME280;63021;52.836;6.376;2023-03-19T13:00:58;101532.16;;;14.27;67.48
55456;BME280;63021;52.836;6.376;2023-03-19T13:06:23;101537.88;;;14.50;67.43
55456;BME280;63021;52.836;6.376;2023-03-19T13:11:42;101533.38;;;14.77;67.24
55456;BME280;63021;52.836;6.376;2023-03-19T13:14:21;101536.81;;;14.87;65.97
55456;BME280;63021;52.836;6.376;2023-03-19T13:21:57;101544.88;;;14.95;65.20
55456;BME280;63021;52.836;6.376;2023-03-19T13:24:28;101560.22;;;15.11;65.06
55456;BME280;63021;52.836;6.376;2023-03-19T13:26:57;101557.44;;;15.21;64.24
55456;BME280;63021;52.836;6.376;2023-03-19T13:31:52;101554.66;;;15.39;64.18
55456;BME280;63021;52.836;6.376;2023-03-19T13:34:30;101555.16;;;15.34;63.56
55456;BME280;63021;52.836;6.376;2023-03-19T13:37:14;101552.94;;;15.30;63.46
55456;BME280;63021;52.836;6.376;2023-03-19T13:39:42;101549.22;;;15.22;63.86
55456;BME280;63021;52.836;6.376;2023-03-19T13:42:34;101548.22;;;15.23;63.52
55456;BME280;63021;52.836;6.376;2023-03-19T13:45:27;101550.38;;;15.20;64.01
55456;BME280;63021;52.836;6.376;2023-03-19T13:47:50;101566.00;;;15.24;63.78
55456;BME280;63021;52.836;6.376;2023-03-19T13:52:49;101563.22;;;15.08;64.44
55456;BME280;63021;52.836;6.376;2023-03-19T14:01:03;101567.94;;;14.62;63.90
55456;BME280;63021;52.836;6.376;2023-03-19T14:03:30;101564.81;;;14.48;64.50
55456;BME280;63021;52.836;6.376;2023-03-19T14:05:58;101574.63;;;14.40;64.44
55456;BME280;63021;52.836;6.376;2023-03-19T14:08:43;101553.66;;;14.17;64.90
55456;BME280;63021;52.836;6.376;2023-03-19T14:11:21;101580.59;;;14.15;65.08
55456;BME280;63021;52.836;6.376;2023-03-19T14:13:48;101583.78;;;14.01;64.79
55456;BME280;63021;52.836;6.376;2023-03-19T14:16:19;101580.03;;;13.94;65.32
55456;BME280;63021;52.836;6.376;2023-03-19T14:18:47;101583.44;;;13.86;65.68
55456;BME280;63021;52.836;6.376;2023-03-19T14:21:16;101582.66;;;13.76;65.78
55456;BME280;63021;52.836;6.376;2023-03-19T14:23:55;101584.16;;;13.60;66.26
55456;BME280;63021;52.836;6.376;2023-03-19T14:26:22;101581.69;;;13.49;65.99
55456;BME280;63021;52.836;6.376;2023-03-19T14:29:06;101572.84;;;13.39;66.76
55456;BME280;63021;52.836;6.376;2023-03-19T14:31:42;101576.53;;;13.38;66.48